Historyczne dane pomiarowe

Dodano dane terminowe – wersja testowa.

Dane z okresu 1951-2019

Wersja bazy: 1.34 [2019-03-16, lista zmian], aktualizacja planowana na 2019-04-15

Dane meteo z obszaru Polski uzyskane na podstawie danych udostępnionych przez Instytut Meteorologii i Gospodarki Wodnej – Państwowy Instytut Badawczy.

 

Wybierz Datę:    

       

TemperaturaWilgotnośćZachmurzenieWiatrCiśnienieWidzialnośćZjawiska
 Data    tng td wb rh cc ccl cl cm ch dir g1 g2 mslp ppp      
1999-06-22 00:00:00 10.5--- 9.6 10.094wxwxwxwx6wx--1008.4 983.7 7.7---wxw1
1999-06-22 01:00:00 9.9--- 9.0 9.494wxwxwxwx7wx--1008.3 983.6----wxw1
1999-06-22 02:00:00 9.1--- 7.9 8.592wxwxwxwx8wx--1008.2 983.4----wxw1
1999-06-22 03:00:00 9.3--- 8.0 8.691wxwxwxwx8wx--1008.8 984.0----wxw1
1999-06-22 04:00:00 9.3--- 8.0 8.691wxwxwxwx9wx14-1008.3 983.5----wxw1
1999-06-22 05:00:00 9.1--- 7.9 8.592wxwxwxwx9wx--1009.1 984.3----wxw1
1999-06-22 06:00:00 8.7--- 7.9 8.395wxwxwxwx7wx--1009.2 984.4 7.9---wxw1
1999-06-22 07:00:00 8.5--- 7.7 8.195wxwxwxwx9wx15-1009.6 984.7----wxw1
1999-06-22 08:00:00 8.7--- 7.9 8.395wxwxwxwx9wx--1010.4 985.5----wxw1
1999-06-22 09:00:00 8.9--- 8.1 8.595wxwxwxwx9wx16-1010.4 985.5----wxw1
1999-06-22 10:00:00 9.1--- 8.1 8.694wxwxwxwx8wx15-1011.4 986.5----wxw1
1999-06-22 11:00:00 9.4--- 8.4 8.994wxwxwxwx8wx16-1011.5 986.7----wxw1
1999-06-22 12:00:00 9.1--- 8.3 8.795wxwxwxwx10wx17-1012.0 987.1 10.0---wxw1
1999-06-22 13:00:00 9.3--- 8.3 8.894wxwxwxwx11wx19-1012.0 987.1----wxw1
1999-06-22 14:00:00 9.1--- 8.3 8.795wxwxwxwx10wx16-1012.6 987.7----wxw1
1999-06-22 15:00:00 9.5--- 8.4 8.993wxwxwxwx9wx16-1012.9 988.0----wxw1
1999-06-22 16:00:00 9.5--- 8.4 8.993wxwxwxwx11wx17-1013.2 988.3----wxw1
1999-06-22 17:00:00 8.9--- 8.1 8.595wxwxwxwx10wx18-1013.9 989.0----wxw1
1999-06-22 18:00:00 9.1--- 8.3 8.795wxwxwxwx8wx--1014.4 989.5 6.7---wxw1
1999-06-22 19:00:00 9.1--- 8.3 8.795wxwxwxwx8wx--1014.5 989.6----wx
1999-06-22 20:00:00 9.0--- 8.4 8.796wxwxwxwx8wx--1015.2 990.2----wx
1999-06-22 21:00:00 8.7--- 7.9 8.395wxwxwxwx7wx--1015.6 990.6----wxw1
1999-06-22 22:00:00 8.6--- 7.8 8.295wxwxwxwx8wx--1015.7 990.7----wxw1
1999-06-22 23:00:00 8.6--- 7.8 8.295wxwxwxwx7wx--1015.9 990.9----wxw1

 

Źródłem pochodzenia danych jest Instytut Meteorologii i Gospodarki Wodnej – Państwowy Instytut Badawczy. Dane Instytutu Meteorologii i Gospodarki Wodnej – Państwowego Instytutu Badawczego zostały przetworzone.

Dane źródłowe można odnaleźć na stronie https://dane.imgw.pl